ORMM/BSR METAR and TAF weather

Enter ICAO airport designator
Station Type Date Time Source
ORMM METAR 2020/12/05 05:00 UTC NOAA

ORMM 050500Z 25005KT 1000 BR FEW040 SCT100 17/17 Q1017 NOSIG


Station Type Date Time Source
ORMM Decoded METAR 2020/12/05 05:00 UTC NOAA

Station name not available
Dec 05, 2020 - 12:00 AM EST / 2020.12.05 0500 UTC
Wind: from the WSW (250 degrees) at 6 MPH (5 KT):0
Visibility: less than 1 mile:0
Sky conditions: partly cloudy
Weather: mist
Temperature: 62 F (17 C)
Dew Point: 62 F (17 C)
Relative Humidity: 100%
Pressure (altimeter): 30.03 in. Hg (1017 hPa)
ob: ORMM 050500Z 25005KT 1000 BR FEW040 SCT100 17/17 Q1017 NOSIG
cycle: 5

Station Type Date Time Source
ORMM TAF 2020/12/05 06:30 UTC NOAA

TAF ORMM 050400Z 0506/0606 27005KT 2000 BR SCT040 BKN100
BECMG 0508/0510 6000

Example: see airport list